Time;durP1;ratioP1;P1;durP2;ratioP2;P2;SDS_P1;SDS_P2;PMS_P1;PMS_P2;Temp;Humidity;BMP_temperature;BMP_pressure;BME280_temperature;BME280_humidity;BME280_pressure;Samples;Min_cycle;Max_cycle;Signal;HPM_P1;HPM_P2
2020/12/20 13:48:56;;;;;;;;;;;9.10;99.90;;;;;;5041317;23;19980;-87
2020/12/20 13:51:24;;;;;;;;;;;9.10;99.90;;;;;;5034864;28;19913;-89
2020/12/20 13:53:49;;;;;;;;;;;9.10;99.90;;;;;;5018446;28;20436;-92
2020/12/20 13:56:15;;;;;;;;;;;9.10;99.90;;;;;;5018282;28;19947;-93
2020/12/20 13:58:43;;;;;;;;;;;9.10;99.90;;;;;;5018945;28;19909;-87
2020/12/20 14:01:17;;;;;;;;;;;9.10;99.90;;;;;;5018815;28;19912;-90
2020/12/20 14:03:45;;;;;;;;;;;9.00;99.90;;;;;;5019133;28;19909;-89
2020/12/20 14:06:13;;;;;;;;;;;9.00;99.90;;;;;;5018704;28;19915;-88
2020/12/20 14:08:39;;;;;;;;;;;9.00;99.90;;;;;;5018632;28;19940;-89
2020/12/20 14:11:17;;;;;;;;;;;8.90;99.90;;;;;;5018998;28;20369;-89
2020/12/20 14:13:45;;;;;;;;;;;8.90;99.90;;;;;;5018941;28;19932;-89
2020/12/20 14:16:13;;;;;;;;;;;8.90;99.90;;;;;;5018103;28;20012;-87
2020/12/20 14:18:39;;;;;;;;;;;9.00;99.90;;;;;;5018441;28;19917;-89
2020/12/20 14:21:05;;;;;;;;;;;8.90;99.90;;;;;;5018048;28;19909;-87
2020/12/20 14:23:31;;;;;;;;;;;9.00;99.90;;;;;;5014685;28;19929;-88
2020/12/20 14:25:56;;;;;;;;;;;8.90;99.90;;;;;;5012806;28;19921;-88
2020/12/20 14:28:24;;;;;;;;;;;9.00;99.90;;;;;;5015610;28;19921;-86
2020/12/20 14:30:50;;;;;;;;;;;9.00;99.90;;;;;;5009817;28;19913;-88
2020/12/20 14:33:15;;;;;;;;;;;9.00;99.90;;;;;;5016388;28;19963;-88
2020/12/20 14:35:45;;;;;;;;;;;9.00;99.90;;;;;;5005929;28;19967;-87
2020/12/20 14:38:11;;;;;;;;;;;9.00;99.90;;;;;;5023677;28;19916;-88
2020/12/20 14:40:36;;;;;;;;;;;9.00;99.90;;;;;;5008591;28;19910;-87
2020/12/20 14:43:02;;;;;;;;;;;9.00;99.90;;;;;;5007023;28;19914;-88
2020/12/20 14:45:31;;;;;;;;;;;9.00;99.90;;;;;;5022997;28;19984;-89
2020/12/20 14:47:56;;;;;;;;;;;9.00;99.90;;;;;;5008008;28;20348;-89
2020/12/20 14:50:22;;;;;;;;;;;8.90;99.90;;;;;;5007287;28;19976;-90
2020/12/20 14:52:47;;;;;;;;;;;8.90;99.90;;;;;;5006730;28;19971;-87
2020/12/20 14:55:13;;;;;;;;;;;8.90;99.90;;;;;;5008233;28;20039;-87
2020/12/20 14:57:41;;;;;;;;;;;8.90;99.90;;;;;;5005814;28;20345;-87
2020/12/20 15:00:06;;;;;;;;;;;8.80;99.90;;;;;;5004271;28;20004;-87
2020/12/20 15:02:32;;;;;;;;;;;8.80;99.90;;;;;;5006122;28;19968;-88
2020/12/20 15:05:03;;;;;;;;;;;8.80;99.90;;;;;;5010288;28;19918;-87
2020/12/20 15:07:29;;;;;;;;;;;8.70;99.90;;;;;;5008935;28;20005;-88
2020/12/20 15:09:54;;;;;;;;;;;8.70;99.90;;;;;;5006816;28;19917;-87
2020/12/20 15:12:22;;;;;;;;;;;8.70;99.90;;;;;;5011143;28;19917;-89
2020/12/20 15:14:49;;;;;;;;;;;8.60;99.90;;;;;;5014491;28;19947;-87
2020/12/20 15:17:17;;;;;;;;;;;8.70;99.90;;;;;;5012363;28;20329;-87
2020/12/20 15:19:45;;;;;;;;;;;8.60;99.90;;;;;;5010096;28;19916;-87
2020/12/20 15:22:10;;;;;;;;;;;8.60;99.90;;;;;;5015062;28;19943;-89
2020/12/20 15:24:36;;;;;;;;;;;8.60;99.90;;;;;;5016392;28;19909;-88
2020/12/20 15:27:01;;;;;;;;;;;8.60;99.90;;;;;;5015222;28;19916;-88
2020/12/20 15:29:29;;;;;;;;;;;8.60;99.90;;;;;;5015245;28;19913;-89
2020/12/20 15:31:57;;;;;;;;;;;8.60;99.90;;;;;;5015361;28;19917;-90
2020/12/20 15:34:23;;;;;;;;;;;8.60;99.90;;;;;;5014898;28;19979;-88
2020/12/20 15:36:53;;;;;;;;;;;8.60;99.90;;;;;;5015163;28;19913;-89
2020/12/20 15:39:18;;;;;;;;;;;8.60;99.90;;;;;;5007710;28;19913;-88
2020/12/20 15:41:44;;;;;;;;;;;8.50;99.90;;;;;;5018540;28;19919;-89
2020/12/20 15:44:09;;;;;;;;;;;8.50;99.90;;;;;;4998406;28;19913;-87
2020/12/20 15:46:35;;;;;;;;;;;8.50;99.90;;;;;;5011864;28;19919;-88
2020/12/20 15:49:01;;;;;;;;;;;8.50;99.90;;;;;;5014580;28;19925;-88
2020/12/20 15:51:27;;;;;;;;;;;8.40;99.90;;;;;;5013024;28;19909;-88
2020/12/20 15:53:55;;;;;;;;;;;8.40;99.90;;;;;;5013283;28;19916;-88
2020/12/20 15:56:20;;;;;;;;;;;8.40;99.90;;;;;;5013424;28;19909;-88
2020/12/20 15:58:46;;;;;;;;;;;8.40;99.90;;;;;;5013728;28;19920;-89
2020/12/20 16:01:14;;;;;;;;;;;8.30;99.90;;;;;;5013491;28;19948;-89
2020/12/20 16:03:43;;;;;;;;;;;8.30;99.90;;;;;;4996049;28;20587;-88
2020/12/20 16:06:09;;;;;;;;;;;8.30;99.90;;;;;;5013040;28;20285;-87
2020/12/20 16:08:35;;;;;;;;;;;8.30;99.90;;;;;;5013067;28;20463;-89
2020/12/20 16:11:11;;;;;;;;;;;8.30;99.90;;;;;;5012906;28;20044;-88
2020/12/20 16:13:40;;;;;;;;;;;8.30;99.90;;;;;;5030751;28;20428;-89
2020/12/20 16:16:06;;;;;;;;;;;8.20;99.90;;;;;;5012615;28;19967;-90
2020/12/20 16:18:32;;;;;;;;;;;8.30;99.90;;;;;;5012831;28;19944;-88
2020/12/20 16:20:59;;;;;;;;;;;8.20;99.90;;;;;;5012672;28;20229;-88
2020/12/20 16:23:25;;;;;;;;;;;8.20;99.90;;;;;;5012739;28;19914;-87
2020/12/20 16:25:51;;;;;;;;;;;8.20;99.90;;;;;;5012781;28;19983;-87
2020/12/20 16:28:17;;;;;;;;;;;8.20;99.90;;;;;;5012379;28;20032;-88
2020/12/20 16:30:45;;;;;;;;;;;8.20;99.90;;;;;;5012749;28;20007;-87
2020/12/20 16:33:11;;;;;;;;;;;8.10;99.90;;;;;;5012896;28;19921;-88
2020/12/20 16:35:41;;;;;;;;;;;8.10;99.90;;;;;;5012138;28;19913;-87
2020/12/20 16:38:07;;;;;;;;;;;8.10;99.90;;;;;;5012878;28;19917;-86
2020/12/20 16:40:33;;;;;;;;;;;8.10;99.90;;;;;;5012661;28;20285;-88
2020/12/20 16:42:59;;;;;;;;;;;8.10;99.90;;;;;;5013430;28;19924;-87
2020/12/20 16:45:24;;;;;;;;;;;8.10;99.90;;;;;;5015711;28;19959;-87
2020/12/20 16:47:51;;;;;;;;;;;8.10;99.90;;;;;;5012530;28;19983;-88
2020/12/20 16:50:21;;;;;;;;;;;8.10;99.90;;;;;;5012867;28;19922;-88
2020/12/20 16:52:46;;;;;;;;;;;8.10;99.90;;;;;;5012980;28;19970;-88
2020/12/20 16:55:13;;;;;;;;;;;8.10;99.90;;;;;;5012711;28;20311;-88
2020/12/20 16:57:39;;;;;;;;;;;8.10;99.90;;;;;;5014005;28;20333;-88
2020/12/20 17:00:08;;;;;;;;;;;8.00;99.90;;;;;;5012706;28;19964;-88
2020/12/20 17:02:36;;;;;;;;;;;8.00;99.90;;;;;;5012538;28;19983;-88
2020/12/20 17:05:03;;;;;;;;;;;8.00;99.90;;;;;;5013020;28;19920;-87
2020/12/20 17:07:31;;;;;;;;;;;8.10;99.90;;;;;;5012492;28;19921;-88
2020/12/20 17:09:57;;;;;;;;;;;8.00;99.90;;;;;;5012643;28;20404;-87
2020/12/20 17:12:23;;;;;;;;;;;8.00;99.90;;;;;;5012753;28;19967;-89
2020/12/20 17:14:49;;;;;;;;;;;8.00;99.90;;;;;;5012517;28;19972;-87
2020/12/20 17:17:15;;;;;;;;;;;8.00;99.90;;;;;;5012491;28;19917;-88
2020/12/20 17:19:41;;;;;;;;;;;8.00;99.90;;;;;;5012627;28;19941;-87
2020/12/20 17:22:07;;;;;;;;;;;8.00;99.90;;;;;;5012218;28;19992;-87
2020/12/20 17:24:33;;;;;;;;;;;8.00;99.90;;;;;;5012414;28;20411;-88
2020/12/20 17:26:59;;;;;;;;;;;8.00;99.90;;;;;;5012542;28;19922;-87
2020/12/20 17:29:27;;;;;;;;;;;8.00;99.90;;;;;;5012078;28;19924;-88
2020/12/20 17:31:55;;;;;;;;;;;8.00;99.90;;;;;;5012449;28;19917;-88
2020/12/20 17:34:21;;;;;;;;;;;8.00;99.90;;;;;;5012129;28;20416;-88
2020/12/20 17:36:46;;;;;;;;;;;8.00;99.90;;;;;;5011871;28;19913;-88
2020/12/20 17:39:14;;;;;;;;;;;8.00;99.90;;;;;;5006171;28;19920;-88
2020/12/20 17:41:50;;;;;;;;;;;8.00;99.90;;;;;;4997885;28;19963;-86
2020/12/20 17:44:19;;;;;;;;;;;8.00;99.90;;;;;;5000479;28;20389;-88
2020/12/20 17:46:45;;;;;;;;;;;8.00;99.90;;;;;;5005695;28;19920;-87
2020/12/20 17:49:10;;;;;;;;;;;8.00;99.90;;;;;;5008434;28;19921;-87
2020/12/20 17:51:38;;;;;;;;;;;8.00;99.90;;;;;;5011329;28;20354;-88
2020/12/20 17:54:04;;;;;;;;;;;8.00;99.90;;;;;;5010569;28;20285;-88
2020/12/20 17:56:30;;;;;;;;;;;7.90;99.90;;;;;;5008629;28;19913;-87
2020/12/20 17:58:58;;;;;;;;;;;8.00;99.90;;;;;;5019339;28;19961;-86
2020/12/20 18:01:25;;;;;;;;;;;7.90;99.90;;;;;;5008262;28;20007;-88
2020/12/20 18:03:51;;;;;;;;;;;7.90;99.90;;;;;;5011059;28;19917;-87
2020/12/20 18:06:17;;;;;;;;;;;7.90;99.90;;;;;;5007816;28;20009;-88
2020/12/20 18:08:43;;;;;;;;;;;7.90;99.90;;;;;;5000784;28;20016;-87
2020/12/20 18:11:10;;;;;;;;;;;7.90;99.90;;;;;;5011179;28;19917;-88
2020/12/20 18:13:37;;;;;;;;;;;7.90;99.90;;;;;;5011151;28;19963;-87
2020/12/20 18:16:06;;;;;;;;;;;7.90;99.90;;;;;;5011057;28;20404;-87
2020/12/20 18:18:31;;;;;;;;;;;7.90;99.90;;;;;;5011198;28;20361;-88
2020/12/20 18:20:57;;;;;;;;;;;7.90;99.90;;;;;;5010931;28;20012;-90
2020/12/20 18:23:23;;;;;;;;;;;7.90;99.90;;;;;;5011684;28;19917;-88
2020/12/20 18:25:49;;;;;;;;;;;7.80;99.90;;;;;;5010855;28;20001;-88
2020/12/20 18:28:16;;;;;;;;;;;7.80;99.90;;;;;;5011090;28;19975;-88
2020/12/20 18:30:43;;;;;;;;;;;7.80;99.90;;;;;;5011305;28;19913;-87
2020/12/20 18:33:10;;;;;;;;;;;7.80;99.90;;;;;;5012047;28;19917;-87
2020/12/20 18:35:37;;;;;;;;;;;7.80;99.90;;;;;;5010758;28;19913;-86
2020/12/20 18:38:06;;;;;;;;;;;7.80;99.90;;;;;;5010809;28;20015;-87
2020/12/20 18:46:26;;;;;;;;;;;7.80;99.90;;;;;;5023689;23;20345;-88
2020/12/20 18:48:56;;;;;;;;;;;7.80;99.90;;;;;;5022744;28;19925;-87
2020/12/20 18:51:22;;;;;;;;;;;7.80;99.90;;;;;;5033564;28;20137;-87
2020/12/20 18:53:47;;;;;;;;;;;7.70;99.90;;;;;;5023482;28;19944;-87
2020/12/20 18:56:13;;;;;;;;;;;7.70;99.90;;;;;;5019417;28;19941;-86
2020/12/20 18:58:44;;;;;;;;;;;7.70;99.90;;;;;;5025823;28;20365;-87
2020/12/20 19:01:09;;;;;;;;;;;7.70;99.90;;;;;;5033414;28;19916;-87
2020/12/20 19:03:36;;;;;;;;;;;7.70;99.90;;;;;;5033247;28;19909;-89
2020/12/20 19:06:04;;;;;;;;;;;7.70;99.90;;;;;;5032666;28;19924;-88
2020/12/20 19:08:30;;;;;;;;;;;7.70;99.90;;;;;;5032842;28;19921;-88
2020/12/20 19:10:59;;;;;;;;;;;7.70;99.90;;;;;;5032956;28;19915;-88
2020/12/20 19:13:25;;;;;;;;;;;7.70;99.90;;;;;;5032834;28;20402;-87
2020/12/20 19:15:50;;;;;;;;;;;7.70;99.90;;;;;;5034220;28;19927;-87
2020/12/20 19:18:18;;;;;;;;;;;7.70;99.90;;;;;;5019889;28;20004;-88
2020/12/20 19:20:44;;;;;;;;;;;7.70;99.90;;;;;;5014330;28;20200;-87
2020/12/20 19:23:12;;;;;;;;;;;7.70;99.90;;;;;;5013824;28;20420;-87
2020/12/20 19:25:37;;;;;;;;;;;7.70;99.90;;;;;;5020808;28;19941;-87
2020/12/20 19:28:05;;;;;;;;;;;7.70;99.90;;;;;;5024479;28;19913;-88
2020/12/20 19:30:31;;;;;;;;;;;7.80;99.90;;;;;;5017837;28;19971;-87
2020/12/20 19:32:56;;;;;;;;;;;7.80;99.90;;;;;;5013894;28;19914;-87
2020/12/20 19:35:24;;;;;;;;;;;7.70;99.90;;;;;;5013668;28;19933;-87
2020/12/20 19:37:50;;;;;;;;;;;7.80;99.90;;;;;;5013433;28;19913;-88
2020/12/20 19:40:15;;;;;;;;;;;7.80;99.90;;;;;;5013131;28;19917;-86
2020/12/20 19:42:43;;;;;;;;;;;7.80;99.90;;;;;;5020981;28;19920;-88
2020/12/20 19:45:11;;;;;;;;;;;7.80;99.90;;;;;;5019865;28;19913;-88
2020/12/20 19:47:37;;;;;;;;;;;7.80;99.90;;;;;;5022719;28;19925;-87
2020/12/20 19:50:03;;;;;;;;;;;7.70;99.90;;;;;;5023632;28;19967;-87
2020/12/20 19:52:32;;;;;;;;;;;7.80;99.90;;;;;;5022265;28;19920;-86
2020/12/20 19:54:58;;;;;;;;;;;7.80;99.90;;;;;;5023985;28;19914;-87
2020/12/20 19:57:23;;;;;;;;;;;7.80;99.90;;;;;;5032596;28;19931;-86
2020/12/20 19:59:54;;;;;;;;;;;7.80;99.90;;;;;;5032726;28;19909;-88
2020/12/20 20:02:19;;;;;;;;;;;7.80;99.90;;;;;;5032749;28;19996;-87
2020/12/20 20:04:45;;;;;;;;;;;7.80;99.90;;;;;;5032342;28;19959;-86
2020/12/20 20:07:10;;;;;;;;;;;7.80;99.90;;;;;;5032289;28;20004;-88
2020/12/20 20:09:36;;;;;;;;;;;7.80;99.90;;;;;;5032550;28;19921;-87
2020/12/20 20:12:01;;;;;;;;;;;7.80;99.90;;;;;;5032835;28;19913;-87
2020/12/20 20:14:29;;;;;;;;;;;7.80;99.90;;;;;;5032972;28;20258;-88
2020/12/20 20:16:56;;;;;;;;;;;7.80;99.90;;;;;;5032499;28;19909;-88
2020/12/20 20:19:24;;;;;;;;;;;7.80;99.90;;;;;;5035391;28;19913;-88
2020/12/20 20:21:52;;;;;;;;;;;7.80;99.90;;;;;;5027769;28;19917;-86
2020/12/20 20:24:20;;;;;;;;;;;7.80;99.90;;;;;;5026743;28;19909;-87
2020/12/20 20:26:50;;;;;;;;;;;7.80;99.90;;;;;;5024216;28;20280;-88
2020/12/20 20:29:16;;;;;;;;;;;7.80;99.90;;;;;;5026982;28;19936;-88
2020/12/20 20:31:41;;;;;;;;;;;7.70;99.90;;;;;;5023981;28;20365;-87
2020/12/20 20:34:10;;;;;;;;;;;7.70;99.90;;;;;;5026074;28;20362;-87
2020/12/20 20:36:37;;;;;;;;;;;7.70;99.90;;;;;;5026998;28;19917;-88
2020/12/20 20:39:04;;;;;;;;;;;7.60;99.90;;;;;;5025414;28;19932;-88
2020/12/20 20:41:30;;;;;;;;;;;7.70;99.90;;;;;;5022388;28;19909;-87
2020/12/20 20:43:55;;;;;;;;;;;7.60;99.90;;;;;;5015978;28;20021;-87
2020/12/20 20:46:21;;;;;;;;;;;7.60;99.90;;;;;;5019138;28;20004;-86
2020/12/20 20:48:48;;;;;;;;;;;7.60;99.90;;;;;;5023766;28;20370;-87
2020/12/20 20:51:18;;;;;;;;;;;7.60;99.90;;;;;;5024414;28;19928;-87
2020/12/20 20:53:46;;;;;;;;;;;7.50;99.90;;;;;;5031332;28;20388;-88
2020/12/20 20:56:21;;;;;;;;;;;7.50;99.90;;;;;;5036041;28;19987;-87
2020/12/20 20:58:48;;;;;;;;;;;7.50;99.90;;;;;;5035580;28;19915;-87
2020/12/20 21:01:14;;;;;;;;;;;7.40;99.90;;;;;;5035558;28;20018;-87
2020/12/20 21:03:45;;;;;;;;;;;7.40;99.90;;;;;;5035428;28;19909;-86
2020/12/20 21:06:10;;;;;;;;;;;7.30;99.90;;;;;;5019579;28;19953;-87
2020/12/20 21:08:36;;;;;;;;;;;7.30;99.90;;;;;;5015377;28;19951;-87
2020/12/20 21:11:04;;;;;;;;;;;7.20;99.90;;;;;;5015875;28;19949;-87
2020/12/20 21:13:29;;;;;;;;;;;7.20;99.90;;;;;;5015934;28;19909;-87
2020/12/20 21:15:57;;;;;;;;;;;7.20;99.90;;;;;;5015810;28;20432;-87
2020/12/20 21:18:23;;;;;;;;;;;7.20;99.90;;;;;;5015293;28;19920;-87
2020/12/20 21:20:49;;;;;;;;;;;7.20;99.90;;;;;;5024490;28;19913;-87
2020/12/20 21:23:17;;;;;;;;;;;7.20;99.90;;;;;;5022998;28;20031;-87
2020/12/20 21:25:43;;;;;;;;;;;7.20;99.90;;;;;;5025463;28;19910;-87
2020/12/20 21:28:08;;;;;;;;;;;7.20;99.90;;;;;;5033597;28;20380;-87
2020/12/20 21:30:34;;;;;;;;;;;7.20;99.90;;;;;;5034039;28;19921;-86
2020/12/20 21:33:01;;;;;;;;;;;7.20;99.90;;;;;;5033662;28;19925;-87
2020/12/20 21:35:27;;;;;;;;;;;7.10;99.90;;;;;;5033808;28;19944;-87
2020/12/20 21:37:53;;;;;;;;;;;7.10;99.90;;;;;;5033962;28;19909;-87
2020/12/20 21:40:18;;;;;;;;;;;7.10;99.90;;;;;;5033267;28;20309;-87
2020/12/20 21:42:44;;;;;;;;;;;7.10;99.90;;;;;;5033349;28;19921;-88
2020/12/20 21:45:12;;;;;;;;;;;7.10;99.90;;;;;;5033354;28;19909;-87
2020/12/20 21:47:41;;;;;;;;;;;7.10;99.90;;;;;;5033064;28;19933;-87
2020/12/20 21:50:07;;;;;;;;;;;7.10;99.90;;;;;;5027902;28;20408;-87
2020/12/20 21:52:35;;;;;;;;;;;7.10;99.90;;;;;;5028666;28;20016;-87
2020/12/20 21:55:01;;;;;;;;;;;7.10;99.90;;;;;;5026351;28;19910;-88
2020/12/20 21:57:27;;;;;;;;;;;7.10;99.90;;;;;;5023290;28;19920;-87
2020/12/20 21:59:55;;;;;;;;;;;7.20;99.90;;;;;;5028578;28;19913;-87
2020/12/20 22:02:21;;;;;;;;;;;7.20;99.90;;;;;;5034429;28;19916;-88
2020/12/20 22:04:46;;;;;;;;;;;7.10;99.90;;;;;;5034862;28;19913;-86
2020/12/20 22:07:12;;;;;;;;;;;7.10;99.90;;;;;;5034214;28;19951;-88
2020/12/20 22:09:38;;;;;;;;;;;7.10;99.90;;;;;;5034111;28;19913;-87
2020/12/20 22:12:03;;;;;;;;;;;7.10;99.90;;;;;;5034328;28;19964;-88
2020/12/20 22:14:29;;;;;;;;;;;7.10;99.90;;;;;;5034195;28;19909;-88
2020/12/20 22:17:04;;;;;;;;;;;7.10;99.90;;;;;;5034448;28;19909;-87
2020/12/20 22:19:32;;;;;;;;;;;7.10;99.90;;;;;;5034347;28;19983;-88
2020/12/20 22:21:58;;;;;;;;;;;7.10;99.90;;;;;;5034019;28;19909;-89
2020/12/20 22:24:26;;;;;;;;;;;7.10;99.90;;;;;;5034029;28;19909;-87
2020/12/20 22:26:54;;;;;;;;;;;7.20;99.90;;;;;;5033715;28;20288;-88
2020/12/20 22:29:23;;;;;;;;;;;7.20;99.90;;;;;;5033705;28;19913;-87
2020/12/20 22:31:51;;;;;;;;;;;7.10;99.90;;;;;;5034147;28;20358;-88
2020/12/20 22:34:19;;;;;;;;;;;7.10;99.90;;;;;;5033918;28;19916;-87
2020/12/20 22:36:44;;;;;;;;;;;7.10;99.90;;;;;;5033797;28;19909;-86
2020/12/20 22:39:10;;;;;;;;;;;7.10;99.90;;;;;;5033733;28;19968;-87
2020/12/20 22:41:36;;;;;;;;;;;7.20;99.90;;;;;;5032928;28;19932;-87
2020/12/20 22:44:01;;;;;;;;;;;7.20;99.90;;;;;;5033542;28;19909;-85
2020/12/20 22:46:27;;;;;;;;;;;7.20;99.90;;;;;;5033338;28;19964;-86
2020/12/20 22:48:55;;;;;;;;;;;7.30;99.90;;;;;;5033472;28;20032;-86
2020/12/20 22:51:20;;;;;;;;;;;7.20;99.90;;;;;;5033528;28;20392;-86
2020/12/20 22:53:47;;;;;;;;;;;7.20;99.90;;;;;;5033734;28;19982;-85
2020/12/20 22:56:24;;;;;;;;;;;7.30;99.90;;;;;;5033474;28;20003;-87
2020/12/20 22:58:49;;;;;;;;;;;7.20;99.90;;;;;;5033358;28;20412;-86
2020/12/20 23:01:17;;;;;;;;;;;7.20;99.90;;;;;;5033233;28;19956;-86
2020/12/20 23:03:43;;;;;;;;;;;7.20;99.90;;;;;;5033275;28;19909;-87
2020/12/20 23:06:09;;;;;;;;;;;7.20;99.90;;;;;;5033153;28;19916;-85
2020/12/20 23:08:37;;;;;;;;;;;7.10;99.90;;;;;;5033225;28;20080;-86
2020/12/20 23:11:04;;;;;;;;;;;7.10;99.90;;;;;;5031043;28;20008;-86
2020/12/20 23:13:30;;;;;;;;;;;7.10;99.90;;;;;;5033556;28;19917;-86
2020/12/20 23:15:57;;;;;;;;;;;7.10;99.90;;;;;;5032838;28;19910;-86
2020/12/20 23:18:25;;;;;;;;;;;7.10;99.90;;;;;;5032997;28;19923;-86
2020/12/20 23:20:51;;;;;;;;;;;7.20;99.90;;;;;;5032760;28;20365;-86
2020/12/20 23:23:16;;;;;;;;;;;7.20;99.90;;;;;;5032718;28;19920;-86
2020/12/20 23:25:45;;;;;;;;;;;7.20;99.90;;;;;;5032568;28;19963;-85
2020/12/20 23:28:13;;;;;;;;;;;7.20;99.90;;;;;;5032912;28;19909;-86
2020/12/20 23:30:38;;;;;;;;;;;7.20;99.90;;;;;;5036085;28;19925;-86
2020/12/20 23:33:04;;;;;;;;;;;7.10;99.90;;;;;;5037540;28;19955;-86
2020/12/20 23:35:30;;;;;;;;;;;7.10;99.90;;;;;;5037474;28;19941;-86
2020/12/20 23:37:56;;;;;;;;;;;7.10;99.90;;;;;;5036473;28;19971;-86
2020/12/20 23:40:22;;;;;;;;;;;7.10;99.90;;;;;;5034008;28;20273;-86
2020/12/20 23:42:47;;;;;;;;;;;7.10;99.90;;;;;;5032770;28;19910;-86
2020/12/20 23:45:15;;;;;;;;;;;7.10;99.90;;;;;;5032473;28;19909;-85
2020/12/20 23:47:41;;;;;;;;;;;7.10;99.90;;;;;;5032810;28;19921;-86
2020/12/20 23:50:08;;;;;;;;;;;7.10;99.90;;;;;;5032395;28;19913;-85
2020/12/20 23:52:36;;;;;;;;;;;7.20;99.90;;;;;;5032611;28;19920;-86
2020/12/20 23:55:04;;;;;;;;;;;7.10;99.90;;;;;;5037011;28;19920;-86
2020/12/20 23:57:29;;;;;;;;;;;7.10;99.90;;;;;;5037047;28;19909;-87
2020/12/20 23:59:55;;;;;;;;;;;7.10;99.90;;;;;;5036510;28;19963;-86
